Aérodrome :
LOGIN :

S'inscrire | Disclaimer

   EN    FR    IT 

 










Légende :    VFR   VFR Marginal   IFR   IFR Intensif   IFR Très Intensif
Visi : 
Plafond : 
>= 8 km
>= 3000ft
5 à 8 km
1000 à 3000 ft
1500m à 5 km
500 à 1000 ft
800 à 1500m
200 à 500 ft
< 800m
< 200 ft
Symboles :   Orages  Brouillard  Fortes neiges  Fortes précipitations  Vent > 20 kt
SIGMETs :   Divers  Orages  Givrage  Turbulence  Onde Orograph.  Cendres Volcan.







- Altitude de l'aérodrome : 13 ft
- Code IATA : CAG


LIEE - Cagliari Elmas

DERNIER METAR :
  • 201650Z 31005KT 9999 FEW050 14/10 Q1007

METARs EXPIRÉS :
  • 201620Z 31007KT 9999 FEW035 15/10 Q1006
  • 201550Z 30007KT 9999 FEW035 16/10 Q1006
  • 201520Z 29008KT 9999 SCT035 17/10 Q1005
  • 201450Z 29010KT 9999 SCT040 17/10 Q1005
  • 201420Z 29010KT 9999 SCT040 18/10 Q1004

TAF TAF LIEE
Valide du 20 à 12h jusqu'au 21 à 12h UTC


201100Z 2012/2112 28012KT 9999 SCT030
TEMPO 2102/2107 4000 SHRA
Pas de NOTAMs connus pour ce terrain.
9 SIGMETs publiés pour la FIR Roma (LIRR) :
 
Annulation du SIGMET 15
LIRR SIGMET 18 VALID 201647/201830 LIIB
LIRR ROMA FIR CNL SIGMET 15 201638/201830=
Orages noyés dans la masse
LIRR SIGMET 17 VALID 201647/201830 LIIB
LIRR ROMA FIR EMBD TS FCST WI N4110 E01507 - N4133 E01416 - N4256 E01304 - N4259 E01120 - N4230 E01005 - N4032 E01118 - N3955 E01238 - N4043 E01447 - N3816 E01422 - N3722 E01410 - N3628 E01425 - N3631 E01755 - N3854 E01752 - N3857 E01700 - N3858 E01625 - N4110 E01507 TOP FL300 STNR NC=
Annulation du SIGMET 11
LIRR SIGMET 16 VALID 201638/201730 LIIB
LIRR ROMA FIR CNL SIGMET 11 201430/201730=
Orages noyés dans la masse
LIRR SIGMET 15 VALID 201638/201830 LIIB
LIRR ROMA FIR EMBD TS FCST WI N3958 E01541 - N3816 E01422 - N3723 E01411 - N3629 E01426 - N3631 E01755 - N3854 E01753 - N3857 E01700 - N3859 E01626 - N3958 E01541 TOP FL300 MOV NE NC=
Annulation du SIGMET 11
LIRR SIGMET 14 VALID 201613/201730 LIIB
LIRR ROMA FIR CNL SIGMET 11 201430/201730=
Orages noyés dans la masse
LIRR SIGMET 13 VALID 201613/201730 LIIB
LIRR ROMA FIR EMBD TS FCST WI N4149 E01013 - N4222 E01006 - N4255 E01004 - N4322 E01001 - N4333 E01024 - N4343 E01104 - N4336 E01216 - N4330 E01316 - N4258 E01301 - N4216 E01337 - N4128 E01419 - N4106 E01509 - N4025 E01439 - N4020 E01353 - N4010 E01251 - N4007 E01149 - N4058 E01055 - N4128 E01030 - N4149 E01013 TOP FL350 MOV NE NC=
Annulation du SIGMET 15
LIRR SIGMET 12 VALID 201648/201830 LIIB
LIRR ROMA FIR CNL SIGMET 15 201638/201830=
Turbulence forte
LIRR SIGMET 12 VALID 201515/201815 LIIB
LIRR ROMA FIR SEV TURB FCST SE OF LINE N4014 E01539 - N3729 E01129 FL240/360 STNR NC=
Orages noyés dans la masse
LIRR SIGMET 11 VALID 201430/201730 LIIB
LIRR ROMA FIR EMBD TS FCST WI N4150 E01014 - N4222 E01006 - N4256 E01005 - N4323 E01001 - N4333 E01024 - N4343 E01104 - N4336 E01216 - N4330 E01316 - N4258 E01301 - N4216 E01337 - N4124 E01426 - N4109 E01406 - N4059 E01341 - N4052 E01201 - N4059 E01056 - N4128 E01030 - N4150 E01014 TOP FL350 MOV NE NC=



MET'MAP, la Météo Aéronautique d'un coup d'oeil ! - Copyright ORBIFLY Décembre 2007 - Disclaimer

ORBIFLY MET'MAP TEAM :

Programmation & Développement : Alexandra Zaïnal
Conception & Développement : Baudouin d'Aumeries
Co-Programmation & Développement : Marc-Olivier Méhu
Soutien technique & logistique : Manuel Goepfert

Contact : metmap@orbifly.com




SOURCES & CREDITS :

   NOAA